Time;durP1;ratioP1;P1;durP2;ratioP2;P2;SDS_P1;SDS_P2;PMS_P1;PMS_P2;Temp;Humidity;BMP_temperature;BMP_pressure;BME280_temperature;BME280_humidity;BME280_pressure;Samples;Min_cycle;Max_cycle;Signal;HPM_P1;HPM_P2
2022/03/03 00:01:53;;;;;;;21.60;12.17;;;;;;;-6.22;100.00;101387.63;5047197;28;20453;-74
2022/03/03 00:04:20;;;;;;;23.00;12.07;;;;;;;-6.18;100.00;101381.91;5045502;28;21104;-74
2022/03/03 00:06:46;;;;;;;22.03;11.93;;;;;;;-6.05;100.00;101375.84;5044817;28;20543;-74
2022/03/03 00:09:13;;;;;;;26.10;13.10;;;;;;;-6.26;100.00;101373.03;5044091;28;20492;-74
2022/03/03 00:11:40;;;;;;;21.23;12.53;;;;;;;-6.32;100.00;101365.06;5046004;28;20453;-74
2022/03/03 00:14:08;;;;;;;26.20;13.07;;;;;;;-6.23;100.00;101365.56;5066147;28;20472;-74
2022/03/03 00:16:34;;;;;;;24.37;12.73;;;;;;;-6.28;100.00;101370.41;5046788;28;20448;-74
2022/03/03 00:19:01;;;;;;;27.30;13.47;;;;;;;-6.21;100.00;101365.63;5053655;28;20527;-74
2022/03/03 00:21:27;;;;;;;25.70;14.23;;;;;;;-6.21;100.00;101370.72;5058143;28;20476;-74
2022/03/03 00:23:54;;;;;;;26.50;14.40;;;;;;;-6.39;100.00;101375.69;5044913;28;20456;-74
2022/03/03 00:26:20;;;;;;;26.80;14.00;;;;;;;-6.37;100.00;101359.72;5051755;28;21011;-74
2022/03/03 00:28:47;;;;;;;28.03;14.50;;;;;;;-6.38;100.00;101354.59;5045946;28;20485;-74
2022/03/03 00:31:15;;;;;;;26.00;12.87;;;;;;;-6.45;100.00;101357.56;5041755;28;21146;-74
2022/03/03 00:33:41;;;;;;;25.47;14.17;;;;;;;-6.47;100.00;101352.44;5047132;28;20448;-74
2022/03/03 00:36:08;;;;;;;22.23;13.17;;;;;;;-6.52;100.00;101357.25;5049384;28;20461;-74
2022/03/03 00:38:34;;;;;;;30.83;14.10;;;;;;;-6.51;100.00;101366.63;5050268;28;20979;-74
2022/03/03 00:41:01;;;;;;;22.63;12.67;;;;;;;-6.42;100.00;101363.72;5056258;28;20476;-74
2022/03/03 00:43:27;;;;;;;26.33;13.03;;;;;;;-6.49;100.00;101365.03;5049593;28;20453;-74
2022/03/03 00:45:54;;;;;;;25.47;13.13;;;;;;;-6.53;100.00;101367.31;5052730;28;20950;-74
2022/03/03 00:50:54;;;;;;;22.13;12.87;;;;;;;-6.35;100.00;101373.41;5045660;28;20493;-71
2022/03/03 00:53:23;;;;;;;22.77;13.10;;;;;;;-6.60;100.00;101371.16;5046982;28;20472;-72
2022/03/03 00:55:49;;;;;;;20.63;12.30;;;;;;;-6.63;100.00;101377.72;5049326;28;20453;-71
2022/03/03 00:58:16;;;;;;;22.83;12.43;;;;;;;-6.58;100.00;101372.13;5046616;28;20454;-71
2022/03/03 01:00:42;;;;;;;28.50;13.40;;;;;;;-6.38;100.00;101360.53;5049746;28;20519;-71
2022/03/03 01:03:09;;;;;;;23.10;12.40;;;;;;;-6.39;100.00;101366.41;5067119;28;21013;-71
2022/03/03 01:05:35;;;;;;;25.17;12.13;;;;;;;-6.49;100.00;101372.66;5068762;28;20456;-71
2022/03/03 01:08:03;;;;;;;28.73;12.97;;;;;;;-6.57;100.00;101371.34;5066889;28;20503;-71
2022/03/03 01:10:29;;;;;;;26.27;13.13;;;;;;;-6.60;100.00;101378.78;5067737;28;20504;-71
2022/03/03 01:12:56;;;;;;;25.63;13.57;;;;;;;-6.52;100.00;101379.22;5067351;28;20460;-71
2022/03/03 01:15:22;;;;;;;26.00;13.73;;;;;;;-6.38;100.00;101380.84;5067906;28;20456;-71
2022/03/03 01:17:49;;;;;;;25.80;12.77;;;;;;;-6.36;100.00;101373.31;5065096;28;20464;-71
2022/03/03 01:20:15;;;;;;;23.03;13.00;;;;;;;-6.35;100.00;101373.41;5065933;28;20498;-71
2022/03/03 01:22:42;;;;;;;25.67;13.33;;;;;;;-6.34;100.00;101375.13;5068444;28;21076;-71
2022/03/03 01:25:09;;;;;;;25.07;13.27;;;;;;;-6.42;100.00;101373.88;5068101;28;20814;-71
2022/03/03 01:27:36;;;;;;;25.87;13.00;;;;;;;-6.49;100.00;101370.09;5066026;28;20464;-71
2022/03/03 01:30:03;;;;;;;22.40;14.23;;;;;;;-6.31;100.00;101365.16;5055555;28;20994;-72
2022/03/03 01:32:29;;;;;;;24.13;13.97;;;;;;;-6.42;100.00;101363.72;5063668;28;20449;-71
2022/03/03 01:34:57;;;;;;;30.97;14.97;;;;;;;-6.37;100.00;101363.94;5063470;28;20455;-71
2022/03/03 01:37:23;;;;;;;27.03;14.67;;;;;;;-6.35;100.00;101358.19;5065575;28;20567;-71
2022/03/03 01:39:50;;;;;;;26.17;13.47;;;;;;;-6.28;100.00;101354.28;5068040;28;20917;-71
2022/03/03 01:42:18;;;;;;;25.03;13.10;;;;;;;-6.35;100.00;101359.81;5069883;28;20468;-71
2022/03/03 01:44:45;;;;;;;25.17;13.90;;;;;;;-6.45;100.00;101365.19;5068374;28;20456;-71
2022/03/03 01:47:19;;;;;;;27.23;13.00;;;;;;;-6.58;100.00;101356.91;5065359;28;20453;-71
2022/03/03 01:49:46;;;;;;;25.27;12.63;;;;;;;-6.45;100.00;101357.56;5064607;28;20484;-71
2022/03/03 01:52:12;;;;;;;23.47;12.77;;;;;;;-6.54;100.00;101351.22;5066919;28;21186;-72
2022/03/03 01:54:39;;;;;;;22.80;13.23;;;;;;;-6.47;100.00;101349.91;5066365;28;20510;-71
2022/03/03 01:57:06;;;;;;;26.90;12.70;;;;;;;-6.61;100.00;101346.59;5066650;28;20452;-71
2022/03/03 01:59:35;;;;;;;21.00;12.30;;;;;;;-6.64;100.00;101343.03;5064298;28;20487;-71
2022/03/03 02:02:02;;;;;;;22.67;12.77;;;;;;;-6.68;100.00;101345.38;5067289;28;20437;-71
2022/03/03 02:04:28;;;;;;;23.70;12.83;;;;;;;-6.64;100.00;101338.81;5066729;28;20475;-71
2022/03/03 02:06:55;;;;;;;24.90;12.83;;;;;;;-6.70;100.00;101344.44;5069091;28;21129;-71
2022/03/03 02:09:21;;;;;;;27.17;12.77;;;;;;;-6.75;100.00;101353.44;5069129;28;20495;-71
2022/03/03 02:11:48;;;;;;;20.80;12.27;;;;;;;-6.79;100.00;101348.97;5076639;28;20807;-71
2022/03/03 02:14:15;;;;;;;22.30;13.13;;;;;;;-6.72;100.00;101351.09;5069940;28;20849;-71
2022/03/03 02:16:42;;;;;;;25.17;13.37;;;;;;;-6.80;100.00;101338.78;5068979;28;20460;-72
2022/03/03 02:19:15;;;;;;;26.90;12.67;;;;;;;-6.85;100.00;101331.75;5071282;28;21013;-71
2022/03/03 02:21:43;;;;;;;25.73;12.70;;;;;;;-6.87;100.00;101329.94;5069995;28;20920;-71
2022/03/03 02:24:09;;;;;;;21.70;13.07;;;;;;;-6.93;100.00;101324.50;5071632;28;20830;-71
2022/03/03 02:26:39;;;;;;;25.67;13.03;;;;;;;-6.81;100.00;101324.31;5055312;28;20467;-71
2022/03/03 02:29:06;;;;;;;21.73;13.10;;;;;;;-6.98;100.00;101309.06;5070062;28;20559;-71
2022/03/03 02:31:32;;;;;;;25.87;13.73;;;;;;;-6.97;100.00;101310.78;5071324;28;20464;-71
2022/03/03 02:33:59;;;;;;;23.57;12.33;;;;;;;-6.98;100.00;101300.56;5073646;28;20488;-71
2022/03/03 02:36:27;;;;;;;22.97;12.67;;;;;;;-7.06;100.00;101301.00;5072117;28;20540;-71
2022/03/03 02:38:57;;;;;;;22.50;12.70;;;;;;;-6.95;100.00;101295.66;5068379;28;20471;-71
2022/03/03 02:41:24;;;;;;;22.83;11.73;;;;;;;-6.97;100.00;101290.50;5071680;28;20455;-71
2022/03/03 02:43:51;;;;;;;26.57;13.07;;;;;;;-7.02;100.00;101296.13;5067949;28;20453;-71
2022/03/03 02:46:18;;;;;;;27.07;13.70;;;;;;;-7.02;100.00;101291.91;5069974;28;20457;-70
2022/03/03 02:48:44;;;;;;;24.93;12.83;;;;;;;-7.04;100.00;101284.22;5051124;28;20480;-71
2022/03/03 02:54:59;;;;;;;24.90;12.63;;;;;;;-7.13;100.00;101282.84;5065566;28;20505;-71
2022/03/03 03:00:11;;;;;;;21.00;12.33;;;;;;;-7.26;100.00;101281.31;5064047;28;20473;-71
2022/03/03 03:02:37;;;;;;;25.30;13.53;;;;;;;-7.18;100.00;101279.19;5064629;28;21079;-71
2022/03/03 03:05:04;;;;;;;23.27;13.07;;;;;;;-7.14;100.00;101282.00;5068482;28;20445;-71
2022/03/03 03:07:30;;;;;;;29.77;13.77;;;;;;;-7.24;100.00;101290.72;5056673;28;20456;-71
2022/03/03 03:09:58;;;;;;;22.97;13.40;;;;;;;-7.24;100.00;101288.19;5069919;28;21190;-69
2022/03/03 03:12:25;;;;;;;24.03;13.80;;;;;;;-7.30;100.00;101287.84;5069960;28;20459;-71
2022/03/03 03:14:51;;;;;;;21.80;11.70;;;;;;;-7.29;100.00;101291.25;5051558;28;20524;-71
2022/03/03 03:17:18;;;;;;;28.13;13.60;;;;;;;-7.26;100.00;101283.84;5069623;28;20459;-71
2022/03/03 03:19:44;;;;;;;24.60;12.67;;;;;;;-7.27;100.00;101282.94;5080352;28;20918;-71
2022/03/03 03:22:11;;;;;;;23.80;12.93;;;;;;;-7.20;100.00;101281.63;5069344;28;20522;-71
2022/03/03 03:24:37;;;;;;;30.20;13.87;;;;;;;-7.02;100.00;101274.16;5070051;28;20452;-71
2022/03/03 03:27:06;;;;;;;29.87;13.60;;;;;;;-7.13;100.00;101280.31;5066680;28;20454;-71
2022/03/03 03:29:33;;;;;;;27.33;13.07;;;;;;;-7.13;100.00;101275.25;5069059;28;21142;-71
2022/03/03 03:31:59;;;;;;;25.60;13.33;;;;;;;-7.09;100.00;101279.69;5067819;28;20468;-70
2022/03/03 03:34:26;;;;;;;27.70;14.00;;;;;;;-7.09;100.00;101270.44;5069697;28;20504;-70
2022/03/03 03:36:53;;;;;;;23.60;12.77;;;;;;;-7.00;100.00;101270.09;5069160;28;20456;-71
2022/03/03 03:39:19;;;;;;;26.50;13.50;;;;;;;-7.00;100.00;101261.56;5068813;28;20476;-71
2022/03/03 03:41:47;;;;;;;28.20;14.13;;;;;;;-6.93;100.00;101261.13;5068962;28;20456;-71
2022/03/03 03:44:15;;;;;;;25.43;13.63;;;;;;;-6.81;100.00;101256.72;5065191;28;20456;-71
2022/03/03 03:46:42;;;;;;;24.03;14.13;;;;;;;-6.77;100.00;101258.66;5067227;28;20463;-71
2022/03/03 03:49:09;;;;;;;23.90;13.90;;;;;;;-6.71;100.00;101255.56;5067434;28;20494;-71
2022/03/03 03:51:35;;;;;;;25.50;14.47;;;;;;;-6.66;100.00;101259.22;5067395;28;20808;-72
2022/03/03 03:54:02;;;;;;;25.23;14.23;;;;;;;-6.61;100.00;101254.38;5064598;28;20460;-72
2022/03/03 03:56:31;;;;;;;27.77;14.77;;;;;;;-6.54;100.00;101251.41;5064919;28;20517;-71
2022/03/03 03:58:58;;;;;;;26.10;14.33;;;;;;;-6.39;100.00;101247.13;5062041;28;20472;-71
2022/03/03 04:01:26;;;;;;;25.53;14.07;;;;;;;-6.29;100.00;101249.34;5060914;28;20468;-71
2022/03/03 04:03:53;;;;;;;30.10;14.70;;;;;;;-6.25;100.00;101247.84;5065374;28;20858;-72
2022/03/03 04:06:19;;;;;;;24.53;13.90;;;;;;;-6.13;100.00;101238.31;5063358;28;20464;-71
2022/03/03 04:08:47;;;;;;;28.70;15.17;;;;;;;-6.06;100.00;101233.56;5065061;28;20533;-72
2022/03/03 04:11:13;;;;;;;29.63;15.07;;;;;;;-6.01;100.00;101232.13;5066811;28;20472;-71
2022/03/03 04:13:39;;;;;;;28.23;15.13;;;;;;;-6.00;100.00;101229.63;5067235;28;20811;-72
2022/03/03 04:16:06;;;;;;;28.10;15.07;;;;;;;-6.10;100.00;101230.88;5068371;28;20461;-70
2022/03/03 04:18:34;;;;;;;29.17;14.63;;;;;;;-5.99;100.00;101244.09;5067365;28;20456;-71
2022/03/03 04:21:00;;;;;;;27.57;14.77;;;;;;;-5.97;100.00;101239.97;5072450;28;20464;-70
2022/03/03 04:23:27;;;;;;;29.50;15.67;;;;;;;-5.88;100.00;101225.97;5070705;28;20479;-71
2022/03/03 04:25:53;;;;;;;27.57;15.87;;;;;;;-5.94;100.00;101217.25;5053177;28;21220;-71
2022/03/03 04:28:20;;;;;;;29.93;15.27;;;;;;;-5.82;100.00;101221.16;5072056;28;20466;-71
2022/03/03 04:30:47;;;;;;;27.97;15.40;;;;;;;-5.73;100.00;101216.56;5070436;28;20483;-70
2022/03/03 04:33:13;;;;;;;27.83;16.07;;;;;;;-5.71;100.00;101212.44;5072713;28;21012;-71
2022/03/03 04:35:42;;;;;;;27.20;15.50;;;;;;;-5.73;100.00;101214.03;5068003;28;20535;-71
2022/03/03 04:38:08;;;;;;;29.33;15.83;;;;;;;-5.65;100.00;101214.41;5061734;28;20485;-72
2022/03/03 04:40:35;;;;;;;30.17;16.37;;;;;;;-5.71;100.00;101214.97;5070413;28;20468;-71
2022/03/03 04:43:01;;;;;;;26.10;14.57;;;;;;;-5.58;100.00;101208.81;5070336;28;20459;-71
2022/03/03 04:45:27;;;;;;;27.10;14.97;;;;;;;-5.49;100.00;101200.75;5070514;28;20452;-70
2022/03/03 04:47:54;;;;;;;34.57;15.77;;;;;;;-5.53;100.00;101202.28;5070428;28;20954;-71
2022/03/03 04:50:20;;;;;;;25.60;14.73;;;;;;;-5.43;100.00;101195.97;5066938;28;20947;-71
2022/03/03 04:52:48;;;;;;;29.20;15.43;;;;;;;-5.42;100.00;101205.34;5067444;28;20457;-71
2022/03/03 04:55:14;;;;;;;29.70;15.47;;;;;;;-5.35;100.00;101195.56;5068576;28;20811;-71
2022/03/03 04:57:41;;;;;;;28.87;15.77;;;;;;;-5.25;100.00;101195.97;5063837;28;20461;-71
2022/03/03 05:00:09;;;;;;;34.77;15.93;;;;;;;-5.24;100.00;101185.00;5065255;28;21194;-71
2022/03/03 05:02:36;;;;;;;29.13;15.07;;;;;;;-5.29;100.00;101184.78;5062753;28;20481;-72
2022/03/03 05:05:02;;;;;;;27.23;15.10;;;;;;;-5.23;100.00;101174.91;5065555;28;20870;-71
2022/03/03 05:07:28;;;;;;;28.43;16.10;;;;;;;-5.22;100.00;101173.25;5065311;28;20462;-72
2022/03/03 05:09:56;;;;;;;29.67;16.80;;;;;;;-5.21;100.00;101182.59;5067204;28;21031;-71
2022/03/03 05:12:22;;;;;;;29.20;15.93;;;;;;;-5.15;100.00;101175.28;5067506;28;21053;-70
2022/03/03 05:14:49;;;;;;;30.87;16.90;;;;;;;-5.04;100.00;101181.72;5069267;28;20794;-71
2022/03/03 05:17:15;;;;;;;28.73;15.63;;;;;;;-5.14;100.00;101187.16;5064891;28;20913;-72
2022/03/03 05:19:41;;;;;;;28.17;15.60;;;;;;;-5.15;100.00;101188.84;5070478;28;20484;-71
2022/03/03 05:22:08;;;;;;;30.17;16.33;;;;;;;-5.06;100.00;101185.00;5068395;28;20464;-72
2022/03/03 05:24:34;;;;;;;31.13;16.03;;;;;;;-4.95;100.00;101178.72;5066486;28;20482;-70
2022/03/03 05:27:03;;;;;;;25.03;14.77;;;;;;;-5.00;100.00;101186.13;5065896;28;20493;-72
2022/03/03 05:29:29;;;;;;;28.93;15.43;;;;;;;-4.85;100.00;101193.59;5062617;28;20988;-71
2022/03/03 05:31:57;;;;;;;25.57;15.03;;;;;;;-4.86;100.00;101179.13;5066478;28;20969;-71
2022/03/03 05:34:24;;;;;;;24.43;13.97;;;;;;;-4.79;100.00;101178.59;5065987;28;20462;-72
2022/03/03 05:36:50;;;;;;;22.97;14.23;;;;;;;-4.77;100.00;101181.22;5066168;28;20524;-71
2022/03/03 05:39:17;;;;;;;25.70;14.77;;;;;;;-4.88;100.00;101184.97;5071577;28;20487;-71
2022/03/03 05:41:43;;;;;;;30.07;18.10;;;;;;;-4.77;100.00;101184.66;5062200;28;20454;-71
2022/03/03 05:44:12;;;;;;;29.63;16.23;;;;;;;-4.74;100.00;101183.06;5067237;28;20984;-72
2022/03/03 05:46:40;;;;;;;32.67;17.47;;;;;;;-4.80;100.00;101189.59;5062551;28;20461;-72
2022/03/03 05:49:07;;;;;;;25.67;14.57;;;;;;;-4.81;100.00;101192.06;5067102;28;20492;-71
2022/03/03 05:51:33;;;;;;;25.27;14.07;;;;;;;-4.82;100.00;101193.75;5065698;28;20832;-71
2022/03/03 05:54:00;;;;;;;27.00;15.30;;;;;;;-4.80;100.00;101191.25;5062322;28;20457;-71
2022/03/03 05:56:26;;;;;;;33.33;16.53;;;;;;;-4.83;100.00;101184.38;5067754;28;20462;-71
2022/03/03 05:58:56;;;;;;;30.47;16.70;;;;;;;-4.84;100.00;101184.28;5065031;28;20499;-72
2022/03/03 06:01:24;;;;;;;29.03;13.33;;;;;;;-4.85;100.00;101188.53;5058911;28;20465;-71
2022/03/03 06:03:51;;;;;;;24.57;13.10;;;;;;;-4.93;100.00;101179.66;5068433;28;20534;-71
2022/03/03 06:06:20;;;;;;;24.60;13.40;;;;;;;-4.98;100.00;101168.41;5066817;28;20983;-71
2022/03/03 06:08:57;;;;;;;25.37;14.13;;;;;;;-5.04;100.00;101163.03;5063300;28;20464;-71
2022/03/03 06:11:27;;;;;;;29.60;15.63;;;;;;;-5.15;100.00;101160.00;5064210;28;20443;-71
2022/03/03 06:14:01;;;;;;;23.83;13.57;;;;;;;-5.22;100.00;101163.09;5063382;28;20544;-71
2022/03/03 06:16:31;;;;;;;29.17;15.97;;;;;;;-5.30;100.00;101164.38;5065983;28;20459;-71
2022/03/03 06:18:59;;;;;;;33.43;17.00;;;;;;;-5.38;100.00;101164.91;5066485;28;20473;-71
2022/03/03 06:21:26;;;;;;;31.80;15.13;;;;;;;-5.27;100.00;101169.63;5066756;28;20839;-71
2022/03/03 06:23:53;;;;;;;25.13;13.80;;;;;;;-5.23;100.00;101177.44;5064176;28;20672;-71
2022/03/03 06:26:21;;;;;;;24.53;13.87;;;;;;;-5.27;100.00;101179.78;5049119;28;20449;-71
2022/03/03 06:28:47;;;;;;;22.73;14.13;;;;;;;-5.23;100.00;101176.56;5063481;28;20564;-71
2022/03/03 06:31:15;;;;;;;24.27;13.30;;;;;;;-5.23;100.00;101179.13;5064444;28;20468;-72
2022/03/03 06:33:43;;;;;;;32.60;15.97;;;;;;;-5.27;100.00;101177.25;5061324;28;20460;-72
2022/03/03 06:36:10;;;;;;;24.40;13.10;;;;;;;-5.40;100.00;101183.41;5068282;28;20444;-71
2022/03/03 06:38:36;;;;;;;25.80;14.20;;;;;;;-5.25;100.00;101178.19;5068124;28;20516;-70
2022/03/03 06:41:05;;;;;;;28.77;14.50;;;;;;;-5.17;100.00;101177.75;5064108;28;20878;-71
2022/03/03 06:43:32;;;;;;;28.20;14.67;;;;;;;-5.13;100.00;101182.16;5066665;28;20458;-71
2022/03/03 06:45:59;;;;;;;28.53;14.73;;;;;;;-5.24;100.00;101179.91;5049486;28;20458;-71
2022/03/03 06:48:26;;;;;;;29.67;15.07;;;;;;;-5.12;100.00;101185.56;5066297;28;20814;-71
2022/03/03 06:50:56;;;;;;;31.80;16.90;;;;;;;-5.05;100.00;101174.00;5089673;22;20495;-71
2022/03/03 06:53:27;;;;;;;29.73;16.43;;;;;;;-5.08;100.00;101187.47;5087085;28;20448;-71
2022/03/03 06:55:55;;;;;;;32.27;16.93;;;;;;;-5.07;100.00;101196.81;5089473;28;20981;-70
2022/03/03 06:58:25;;;;;;;29.57;17.70;;;;;;;-5.13;100.00;101205.03;5088493;28;20467;-71
2022/03/03 07:00:53;;;;;;;32.97;16.87;;;;;;;-4.99;100.00;101217.53;5090314;28;20475;-72
2022/03/03 07:03:21;;;;;;;32.20;16.97;;;;;;;-5.03;100.00;101216.53;5089035;28;20980;-72
2022/03/03 07:05:48;;;;;;;31.27;16.53;;;;;;;-4.97;100.00;101221.88;5084729;28;20543;-71
2022/03/03 07:08:16;;;;;;;30.87;17.10;;;;;;;-4.80;100.00;101215.03;5086390;28;20460;-71
2022/03/03 07:10:44;;;;;;;33.17;16.93;;;;;;;-4.77;100.00;101220.28;5084836;28;20475;-70
2022/03/03 07:13:10;;;;;;;33.30;17.40;;;;;;;-4.68;100.00;101241.84;5085723;28;20460;-71
2022/03/03 07:15:46;;;;;;;33.90;18.80;;;;;;;-4.58;100.00;101246.53;5081590;28;20505;-71
2022/03/03 07:18:17;;;;;;;35.90;17.83;;;;;;;-4.47;100.00;101255.53;5086645;28;21004;-70
2022/03/03 07:20:52;;;;;;;34.07;18.50;;;;;;;-4.39;100.00;101248.25;5086891;28;20464;-72
2022/03/03 07:23:36;;;;;;;30.93;17.90;;;;;;;-4.29;100.00;101250.41;5087887;28;20459;-71
2022/03/03 07:26:05;;;;;;;32.00;18.17;;;;;;;-4.16;100.00;101241.63;5085775;28;20444;-71
2022/03/03 07:28:34;;;;;;;34.07;18.90;;;;;;;-4.05;100.00;101237.84;5090247;28;20463;-72
2022/03/03 07:31:03;;;;;;;34.40;18.30;;;;;;;-3.88;100.00;101237.72;5089922;28;20479;-71
2022/03/03 07:33:39;;;;;;;33.37;18.33;;;;;;;-3.72;100.00;101232.44;5081840;28;20474;-71
2022/03/03 07:36:08;;;;;;;32.60;17.97;;;;;;;-3.65;100.00;101229.34;5084177;28;20530;-71
2022/03/03 07:38:39;;;;;;;33.27;17.93;;;;;;;-3.58;100.00;101224.50;5066291;28;20976;-71
2022/03/03 07:41:08;;;;;;;35.00;18.20;;;;;;;-3.50;100.00;101220.56;5086207;28;20473;-71
2022/03/03 07:43:35;;;;;;;26.90;16.20;;;;;;;-3.52;100.00;101225.59;5090727;28;20459;-72
2022/03/03 07:46:02;;;;;;;35.27;18.77;;;;;;;-3.52;100.00;101232.38;5088260;28;20481;-71
2022/03/03 07:48:30;;;;;;;34.83;18.40;;;;;;;-3.50;100.00;101220.56;5083544;28;20464;-71
2022/03/03 07:50:57;;;;;;;33.33;19.10;;;;;;;-3.46;100.00;101236.06;5083742;28;20490;-71
2022/03/03 07:53:24;;;;;;;27.20;16.07;;;;;;;-3.41;100.00;101246.47;5086522;28;20466;-71
2022/03/03 07:56:01;;;;;;;31.30;17.37;;;;;;;-3.33;100.00;101242.53;5086428;28;20470;-71
2022/03/03 07:58:30;;;;;;;30.03;16.70;;;;;;;-3.30;100.00;101246.88;5084818;28;20446;-72
2022/03/03 08:01:00;;;;;;;29.53;17.27;;;;;;;-3.18;100.00;101251.59;5080149;28;20483;-72
2022/03/03 08:03:27;;;;;;;29.33;16.60;;;;;;;-3.07;100.00;101245.25;5083882;28;20446;-72
2022/03/03 08:05:56;;;;;;;29.63;16.90;;;;;;;-3.03;100.00;101242.00;5089636;28;20459;-71
2022/03/03 08:08:25;;;;;;;26.23;16.13;;;;;;;-2.95;100.00;101250.84;5081855;28;20539;-72
2022/03/03 08:10:57;;;;;;;30.00;17.20;;;;;;;-2.89;100.00;101243.41;5083553;28;20491;-71
2022/03/03 08:13:27;;;;;;;29.70;16.20;;;;;;;-2.80;100.00;101236.91;5083495;28;20472;-71
2022/03/03 08:15:54;;;;;;;26.87;16.93;;;;;;;-2.74;100.00;101244.81;5088308;28;20462;-72
2022/03/03 08:18:21;;;;;;;28.83;17.63;;;;;;;-2.68;100.00;101251.00;5085602;28;21137;-71
2022/03/03 08:20:47;;;;;;;29.73;17.87;;;;;;;-2.59;99.88;101247.06;5083400;28;20225;-71
2022/03/03 08:23:14;;;;;;;27.50;17.27;;;;;;;-2.49;98.77;101252.56;5084319;28;20451;-72
2022/03/03 08:25:40;;;;;;;27.93;17.50;;;;;;;-2.35;97.86;101253.06;5068092;28;20469;-72
2022/03/03 08:28:09;;;;;;;29.27;17.17;;;;;;;-2.25;96.25;101267.06;5088857;28;20232;-71
2022/03/03 08:30:35;;;;;;;27.03;16.43;;;;;;;-2.12;94.68;101273.47;5083490;28;20262;-71
2022/03/03 08:33:08;;;;;;;28.13;16.20;;;;;;;-1.98;91.63;101272.28;5089408;28;20204;-72
2022/03/03 08:35:37;;;;;;;26.67;15.40;;;;;;;-1.86;88.92;101279.53;5085156;28;20777;-72
2022/03/03 08:38:06;;;;;;;25.50;15.37;;;;;;;-1.76;87.86;101280.69;5090741;28;20463;-71
2022/03/03 08:40:34;;;;;;;25.43;14.40;;;;;;;-1.64;87.81;101280.25;5083588;28;20233;-71
2022/03/03 08:43:03;;;;;;;23.87;13.60;;;;;;;-1.50;86.86;101279.03;5080979;28;20452;-71
2022/03/03 08:45:32;;;;;;;21.47;13.80;;;;;;;-1.43;86.67;101280.97;5083122;28;20190;-71
2022/03/03 08:48:01;;;;;;;22.93;13.93;;;;;;;-1.33;85.84;101283.00;5084047;28;20196;-71
2022/03/03 08:50:29;;;;;;;20.03;12.43;;;;;;;-1.21;84.91;101284.25;5084851;28;20226;-71
2022/03/03 08:52:57;;;;;;;22.20;13.33;;;;;;;-1.06;83.14;101276.19;5068384;28;20214;-71
2022/03/03 08:55:25;;;;;;;23.20;13.20;;;;;;;-0.96;82.60;101281.63;5087072;28;20202;-72
2022/03/03 08:57:52;;;;;;;22.43;13.73;;;;;;;-0.85;83.19;101278.53;5088358;28;20206;-71
2022/03/03 09:00:19;;;;;;;29.03;13.57;;;;;;;-0.78;81.47;101276.22;5098218;27;21041;-72
2022/03/03 09:02:47;;;;;;;25.43;13.73;;;;;;;-0.63;80.79;101270.69;5084916;28;20201;-72
2022/03/03 09:05:14;;;;;;;22.63;12.77;;;;;;;-0.61;80.14;101278.44;5090155;28;20269;-72
2022/03/03 09:07:41;;;;;;;19.40;12.87;;;;;;;-0.47;80.13;101276.28;5088870;28;20208;-71
2022/03/03 09:10:09;;;;;;;23.73;12.77;;;;;;;-0.40;80.01;101281.63;5086990;28;20621;-72
2022/03/03 09:12:35;;;;;;;18.73;12.40;;;;;;;-0.36;80.46;101280.00;5089589;28;20312;-71
2022/03/03 09:15:02;;;;;;;25.03;13.63;;;;;;;-0.23;80.51;101273.53;5088362;28;20198;-71
2022/03/03 09:17:28;;;;;;;21.50;12.47;;;;;;;-0.14;80.95;101263.56;5089499;28;20210;-72
2022/03/03 09:19:56;;;;;;;20.87;12.83;;;;;;;0.05;77.89;101272.59;5088322;28;20219;-72
2022/03/03 09:22:22;;;;;;;20.83;12.70;;;;;;;0.14;77.46;101262.63;5087098;28;20205;-72
2022/03/03 09:24:49;;;;;;;22.13;12.23;;;;;;;0.20;77.33;101272.16;5090005;28;20194;-70
2022/03/03 09:27:15;;;;;;;22.07;12.60;;;;;;;0.25;77.72;101265.47;5087400;28;20194;-70
2022/03/03 09:29:42;;;;;;;20.23;11.93;;;;;;;0.32;76.16;101264.78;5086818;28;20260;-71
2022/03/03 09:32:09;;;;;;;19.57;12.40;;;;;;;0.38;75.85;101270.06;5088930;28;20236;-72
2022/03/03 09:34:36;;;;;;;23.20;13.17;;;;;;;0.45;75.12;101270.22;5093411;28;20214;-72
2022/03/03 09:37:04;;;;;;;24.50;13.00;;;;;;;0.59;75.04;101262.88;5083605;28;20194;-72
2022/03/03 09:39:30;;;;;;;20.87;12.90;;;;;;;0.67;75.42;101269.06;5070148;28;20238;-71
2022/03/03 09:41:57;;;;;;;21.67;12.90;;;;;;;0.72;74.44;101263.22;5087546;28;20193;-71
2022/03/03 09:44:25;;;;;;;21.83;12.53;;;;;;;0.79;74.92;101266.78;5087999;28;20213;-70
2022/03/03 09:46:52;;;;;;;30.67;17.13;;;;;;;0.92;76.17;101257.69;5087844;28;20205;-72
2022/03/03 09:49:19;;;;;;;24.30;13.03;;;;;;;1.13;72.71;101267.59;5088266;28;20223;-72
2022/03/03 09:51:47;;;;;;;23.77;13.10;;;;;;;1.30;70.21;101266.28;5091147;28;20228;-72
2022/03/03 09:54:15;;;;;;;21.53;12.90;;;;;;;1.49;66.91;101267.53;5088420;28;20649;-71
2022/03/03 09:56:42;;;;;;;23.30;12.70;;;;;;;1.59;66.85;101267.75;5087275;28;20209;-71
2022/03/03 09:59:08;;;;;;;20.57;12.03;;;;;;;1.64;66.22;101271.28;5086351;28;20690;-72
2022/03/03 10:01:35;;;;;;;23.83;12.93;;;;;;;1.62;67.54;101252.34;5093922;28;20210;-71
2022/03/03 10:04:15;;;;;;;21.30;12.10;;;;;;;1.97;64.25;101265.06;5087156;28;20215;-71
2022/03/03 10:06:42;;;;;;;19.60;11.87;;;;;;;2.05;63.99;101258.38;5092647;28;20300;-72
2022/03/03 10:09:09;;;;;;;21.03;12.20;;;;;;;2.19;62.58;101264.63;5082013;28;20200;-71
2022/03/03 10:11:41;;;;;;;23.17;12.70;;;;;;;2.36;62.73;101261.50;5087188;28;20222;-72
2022/03/03 10:14:08;;;;;;;18.57;11.40;;;;;;;2.54;62.21;101264.38;5082300;28;20202;-72
2022/03/03 10:16:35;;;;;;;21.50;12.60;;;;;;;2.65;62.02;101259.41;5089652;28;20209;-72
2022/03/03 10:19:04;;;;;;;20.73;11.17;;;;;;;2.81;60.22;101263.09;5086825;28;20194;-72
2022/03/03 10:21:32;;;;;;;18.90;12.07;;;;;;;2.82;59.65;101267.44;5087659;28;20228;-71
2022/03/03 10:24:00;;;;;;;20.70;11.87;;;;;;;2.93;60.02;101270.16;5082827;28;20808;-72
2022/03/03 10:26:38;;;;;;;21.03;11.90;;;;;;;3.00;59.30;101264.25;5088233;28;20201;-72
2022/03/03 10:29:16;;;;;;;17.37;11.83;;;;;;;3.17;59.58;101257.66;5062779;28;20725;-71
2022/03/03 10:31:46;;;;;;;21.97;11.77;;;;;;;3.26;59.47;101262.06;5087736;28;20283;-72
2022/03/03 10:34:17;;;;;;;20.07;11.60;;;;;;;3.33;59.55;101257.88;5086484;28;20205;-71
2022/03/03 10:36:43;;;;;;;20.17;12.50;;;;;;;3.35;58.73;101263.91;5083552;28;20259;-71
2022/03/03 10:39:09;;;;;;;19.70;12.30;;;;;;;3.41;57.14;101269.13;5084489;28;20194;-72
2022/03/03 10:41:38;;;;;;;21.73;12.53;;;;;;;3.40;56.71;101264.84;5086544;28;20316;-71
2022/03/03 10:44:08;;;;;;;21.53;12.07;;;;;;;3.45;56.85;101264.88;5084215;28;20209;-72
2022/03/03 10:46:36;;;;;;;22.93;13.27;;;;;;;3.46;57.76;101267.47;5086200;28;20212;-72
2022/03/03 10:49:20;;;;;;;22.97;13.07;;;;;;;3.58;57.86;101266.78;5066523;28;20617;-72
2022/03/03 10:51:46;;;;;;;24.97;12.70;;;;;;;3.70;57.67;101273.81;5085470;28;20229;-72
2022/03/03 10:54:13;;;;;;;19.57;13.10;;;;;;;3.67;56.81;101266.91;5094202;28;20201;-71
2022/03/03 10:56:45;;;;;;;21.13;13.60;;;;;;;3.68;57.18;101262.63;5085001;28;20202;-72
2022/03/03 10:59:21;;;;;;;19.23;12.60;;;;;;;3.89;58.40;101249.13;5086859;28;20237;-71
2022/03/03 11:01:48;;;;;;;28.07;17.20;;;;;;;3.86;58.86;101257.66;5081358;28;20182;-72
2022/03/03 11:04:17;;;;;;;21.77;13.30;;;;;;;4.09;58.08;101267.38;5084906;28;20280;-71
2022/03/03 11:06:43;;;;;;;22.67;14.17;;;;;;;4.19;57.80;101258.91;5079617;28;20241;-72
2022/03/03 11:09:10;;;;;;;28.00;15.30;;;;;;;4.27;57.60;101251.22;5086633;28;20198;-71
2022/03/03 11:11:37;;;;;;;50.27;24.40;;;;;;;4.16;57.39;101258.88;5085150;28;20387;-72
2022/03/03 11:14:05;;;;;;;31.73;17.70;;;;;;;4.17;59.79;101247.69;5083494;28;20203;-72
2022/03/03 11:16:33;;;;;;;60.27;32.90;;;;;;;4.22;58.48;101253.78;5080171;28;20186;-71